Terminal Aerodrome Forecast
Issued by NWS

Home | Current Version | Previous Version | Text Only | Print | Product List | Glossary On
Versions: 1 2 3 4 5 6 7 8 9 10 11 12 13 14 15 16 17 18 19 20 21 22 23 24 25 26 27 28 29 30 31 32 33 34 35
000
FTUS46 KOTX 250744 AAA
TAFPUW
TAF AMD
KPUW 250744Z 2508/2606 26008KT P6SM BKN009 OVC050
     FM251000 26006KT P6SM BKN006 OVC015
     FM251400 25007KT P6SM BKN009 OVC020
     FM251600 26009KT P6SM BKN015 OVC025
     FM251800 25008KT P6SM VCSH SCT030 BKN060
     FM260200 21005KT P6SM SCT120 BKN200=

USA.gov is the U.S. government's official web portal to all federal, state and local government web resources and services.